Eurocargo Valencia — IBGZ — position and weather

sailwx.info

Track history (hours):
 
Tides and Currents Weather Stations Pressure Air Temp Water Temp Dewpoint Dewpoint Depression Visibility Wind Speed Wind Dir Waves Ship Positions

Eurocargo Valencia

Last reported at 2014-Dec-15 23:33 UTC. Time now 2014-Dec-19 01:31 UTC.
Position N 36°35' E 023°21'.

Length 196 m; draft 6.6 m.

Type: Cargo ship. MMSI: 247579000.

Date/timePositionNaut miles runAvg speedWind from/ knotsBaromVisibWave heightAir tempDewpointWater temp
2014-Dec-15 23:33N 36°35' E 023°21'1714.9
2014-Dec-15 22:26N 36°49' E 023°33'2015.1
2014-Dec-15 21:07N 37°06' E 023°46'1115.2
2014-Dec-15 20:22N 37°15' E 023°54'1215.1
2014-Dec-15 19:33N 37°25' E 024°03'1515.0
2014-Dec-15 18:32N 37°38' E 024°13'1515.5
2014-Dec-15 17:33N 37°49' E 024°26'2315.7
2014-Dec-15 16:07N 38°06' E 024°44'916.1
2014-Dec-15 15:33N 38°15' E 024°49'4915.1
2014-Dec-15 12:19N 38°59' E 025°16'  
2014-Dec-12 22:07N 37°56' E 024°35'711.9
2014-Dec-12 21:33N 37°51' E 024°29'2412.2
2014-Dec-12 19:33N 37°35' E 024°06'1413.5
2014-Dec-12 18:32N 37°37' E 023°48'1313.2
2014-Dec-12 17:33N 37°47' E 023°38'10 9.3
2014-Dec-12 16:31N 37°57' E 023°36'0 0.0
2014-Dec-12 15:31N 37°57' E 023°36'0 0.0
2014-Dec-12 14:31N 37°57' E 023°36'0 0.0
2014-Dec-12 13:31N 37°57' E 023°36'0 0.0
2014-Dec-12 12:31N 37°57' E 023°36'0 0.0
2014-Dec-12 11:31N 37°57' E 023°36'0 0.0
2014-Dec-12 10:31N 37°57' E 023°36'2 2.4
2014-Dec-12 09:33N 37°55' E 023°36'1110.9
2014-Dec-12 08:33N 37°45' E 023°43'1414.2
2014-Dec-12 07:33N 37°31' E 023°45'  
Track history (hours):
 
Tides and Currents Weather Stations Pressure Air Temp Water Temp Dewpoint Dewpoint Depression Visibility Wind Speed Wind Dir Waves Ship Positions

Eurocargo Valencia

Last reported at 2014-Dec-15 23:33 UTC. Time now 2014-Dec-19 01:31 UTC.
Position N 36°35' E 023°21'.

Length 196 m; draft 6.6 m.

Type: Cargo ship. MMSI: 247579000.

Date/timePositionNaut miles runAvg speedWind from/ knotsBaromVisibWave heightAir tempDewpointWater temp
2014-Dec-15 23:33N 36°35' E 023°21'1714.9
2014-Dec-15 22:26N 36°49' E 023°33'2015.1
2014-Dec-15 21:07N 37°06' E 023°46'1115.2
2014-Dec-15 20:22N 37°15' E 023°54'1215.1
2014-Dec-15 19:33N 37°25' E 024°03'1515.0
2014-Dec-15 18:32N 37°38' E 024°13'1515.5
2014-Dec-15 17:33N 37°49' E 024°26'2315.7
2014-Dec-15 16:07N 38°06' E 024°44'916.1
2014-Dec-15 15:33N 38°15' E 024°49'4915.1
2014-Dec-15 12:19N 38°59' E 025°16'  
2014-Dec-12 22:07N 37°56' E 024°35'711.9
2014-Dec-12 21:33N 37°51' E 024°29'2412.2
2014-Dec-12 19:33N 37°35' E 024°06'1413.5
2014-Dec-12 18:32N 37°37' E 023°48'1313.2
2014-Dec-12 17:33N 37°47' E 023°38'10 9.3
2014-Dec-12 16:31N 37°57' E 023°36'0 0.0
2014-Dec-12 15:31N 37°57' E 023°36'0 0.0
2014-Dec-12 14:31N 37°57' E 023°36'0 0.0
2014-Dec-12 13:31N 37°57' E 023°36'0 0.0
2014-Dec-12 12:31N 37°57' E 023°36'0 0.0
2014-Dec-12 11:31N 37°57' E 023°36'0 0.0
2014-Dec-12 10:31N 37°57' E 023°36'2 2.4
2014-Dec-12 09:33N 37°55' E 023°36'1110.9
2014-Dec-12 08:33N 37°45' E 023°43'1414.2
2014-Dec-12 07:33N 37°31' E 023°45'  

Dump ship's entire track history